createdAt,value
2023-04-25T00:02:14.570Z,101159.28
2023-04-25T00:04:41.259Z,101143.78
2023-04-25T00:07:07.959Z,101137.09
2023-04-25T00:09:34.482Z,101142.72
2023-04-25T00:12:02.437Z,101136.97
2023-04-25T00:14:30.615Z,101146.91
2023-04-25T00:16:57.162Z,101124.50
2023-04-25T00:19:23.603Z,101150.88
2023-04-25T00:21:50.044Z,101125.31
2023-04-25T00:24:16.582Z,101149.69
2023-04-25T00:26:46.013Z,101150.03
2023-04-25T00:29:12.469Z,101153.72
2023-04-25T00:31:38.959Z,101138.31
2023-04-25T00:34:05.519Z,101162.69
2023-04-25T00:36:32.436Z,101140.53
2023-04-25T00:38:58.859Z,101149.94
2023-04-25T00:41:27.095Z,101146.59
2023-04-25T00:43:55.598Z,101134.38
2023-04-25T00:46:22.204Z,101168.94
2023-04-25T00:48:48.672Z,101168.63
2023-04-25T00:51:19.094Z,101123.47
2023-04-25T00:53:46.261Z,101165.41
2023-04-25T00:56:13.287Z,101140.41
2023-04-25T00:58:41.233Z,101154.28
2023-04-25T01:01:09.151Z,101157.59
2023-04-25T01:03:41.842Z,101136.13
2023-04-25T01:06:10.260Z,101171.06
2023-04-25T01:08:38.847Z,101168.78
2023-04-25T01:11:06.015Z,101180.09
2023-04-25T01:13:34.081Z,101134.69
2023-04-25T01:16:01.051Z,101154.97
2023-04-25T01:18:27.811Z,101175.75
2023-04-25T01:20:54.944Z,101179.09
2023-04-25T01:23:22.583Z,101188.00
2023-04-25T01:25:50.469Z,101185.69
2023-04-25T01:28:17.431Z,101174.91
2023-04-25T01:30:44.277Z,101179.94
2023-04-25T01:33:12.216Z,101183.28
2023-04-25T01:35:38.719Z,101173.47
2023-04-25T01:38:05.193Z,101182.88
2023-04-25T01:40:32.953Z,101104.78
2023-04-25T01:42:59.423Z,101180.47
2023-04-25T01:45:26.170Z,101167.19
2023-04-25T01:47:52.694Z,101154.72
2023-04-25T01:50:19.866Z,101193.69
2023-04-25T01:52:46.316Z,101177.56
2023-04-25T01:55:12.770Z,101192.13
2023-04-25T01:57:39.498Z,101187.19
2023-04-25T02:00:07.930Z,101190.03
2023-04-25T02:02:34.551Z,101194.53
2023-04-25T02:05:01.100Z,101189.94
2023-04-25T02:07:27.884Z,101194.34
2023-04-25T02:09:54.270Z,101194.53
2023-04-25T02:12:20.698Z,101195.06
2023-04-25T02:14:47.099Z,101200.50
2023-04-25T02:17:13.708Z,101192.56
2023-04-25T02:19:40.462Z,101206.56
2023-04-25T02:22:06.965Z,101203.03
2023-04-25T02:24:34.694Z,101205.72
2023-04-25T02:27:01.812Z,101194.66
2023-04-25T02:29:28.271Z,101201.03
2023-04-25T02:31:54.869Z,101187.00
2023-04-25T02:34:21.456Z,101204.69
2023-04-25T02:36:50.588Z,101188.44
2023-04-25T02:39:17.289Z,101198.19
2023-04-25T02:41:43.752Z,101205.41
2023-04-25T02:44:10.156Z,101217.97
2023-04-25T02:46:39.335Z,101196.28
2023-04-25T02:49:07.076Z,101198.41
2023-04-25T02:51:33.669Z,101208.66
2023-04-25T02:54:00.326Z,101220.19
2023-04-25T02:56:27.267Z,101228.78
2023-04-25T02:58:54.709Z,101220.84
2023-04-25T03:01:21.442Z,101208.78
2023-04-25T03:03:48.063Z,101205.31
2023-04-25T03:06:14.994Z,101221.84
2023-04-25T03:08:41.392Z,101228.06
2023-04-25T03:11:07.883Z,101227.31
2023-04-25T03:13:34.504Z,101224.06
2023-04-25T03:16:02.096Z,101227.72
2023-04-25T03:18:28.666Z,101224.25
2023-04-25T03:20:55.247Z,101240.19
2023-04-25T03:23:22.180Z,101240.31
2023-04-25T03:25:48.695Z,101235.38
2023-04-25T03:28:15.391Z,101237.06
2023-04-25T03:30:41.788Z,101223.22
2023-04-25T03:33:08.273Z,101228.97
2023-04-25T03:35:34.816Z,101219.66
2023-04-25T03:38:01.235Z,101207.09
2023-04-25T03:40:27.712Z,101192.56
2023-04-25T03:42:54.169Z,101246.91
2023-04-25T03:45:20.714Z,101195.06
2023-04-25T03:47:47.213Z,101247.22
2023-04-25T03:50:13.781Z,101232.25
2023-04-25T03:52:40.194Z,101256.22
2023-04-25T03:55:07.039Z,101234.66
2023-04-25T03:57:33.440Z,101242.38
2023-04-25T03:59:59.943Z,101265.53
2023-04-25T04:02:26.546Z,101266.44
2023-04-25T04:04:53.338Z,101260.78
2023-04-25T04:07:20.024Z,101278.78
2023-04-25T04:09:46.485Z,101282.06
2023-04-25T04:12:12.964Z,101262.47
2023-04-25T04:14:39.407Z,101263.81
2023-04-25T04:17:07.068Z,101257.31
2023-04-25T04:19:33.497Z,101261.31
2023-04-25T04:21:59.931Z,101267.50
2023-04-25T04:24:26.359Z,101267.28
2023-04-25T04:26:53.079Z,101279.44
2023-04-25T04:29:22.241Z,101270.84
2023-04-25T04:31:50.584Z,101265.13
2023-04-25T04:34:18.913Z,101278.31
2023-04-25T04:36:47.194Z,101282.81
2023-04-25T04:39:14.238Z,101292.97
2023-04-25T04:41:40.884Z,101285.63
2023-04-25T04:44:09.989Z,101258.91
2023-04-25T04:46:38.848Z,101301.16
2023-04-25T04:49:09.769Z,101270.75
2023-04-25T04:51:36.561Z,101293.59
2023-04-25T04:54:03.757Z,101267.16
2023-04-25T04:56:32.002Z,101299.97
2023-04-25T04:58:59.071Z,101290.53
2023-04-25T05:01:27.095Z,101300.38
2023-04-25T05:03:54.036Z,101317.06
2023-04-25T05:06:21.045Z,101304.81
2023-04-25T05:08:47.525Z,101299.88
2023-04-25T05:11:14.020Z,101318.25
2023-04-25T05:13:40.565Z,101290.09
2023-04-25T05:16:07.181Z,101327.03
2023-04-25T05:18:33.646Z,101326.19
2023-04-25T05:21:00.122Z,101324.53
2023-04-25T05:23:28.764Z,101327.88
2023-04-25T05:25:55.394Z,101343.81
2023-04-25T05:28:22.183Z,101328.72
2023-04-25T05:30:49.146Z,101347.03
2023-04-25T05:33:16.337Z,101327.25
2023-04-25T05:35:43.142Z,101344.34
2023-04-25T05:38:09.601Z,101345.06
2023-04-25T05:40:36.132Z,101338.38
2023-04-25T05:43:02.565Z,101329.47
2023-04-25T05:45:29.016Z,101357.34
2023-04-25T05:47:55.545Z,101358.81
2023-04-25T05:50:22.221Z,101366.78
2023-04-25T05:52:48.700Z,101351.47
2023-04-25T05:55:15.901Z,101367.63
2023-04-25T05:57:43.407Z,101365.78
2023-04-25T06:00:10.740Z,101371.56
2023-04-25T06:02:37.294Z,101351.28
2023-04-25T06:05:04.694Z,101374.34
2023-04-25T06:07:31.868Z,101354.41
2023-04-25T06:09:58.698Z,101365.03
2023-04-25T06:12:25.120Z,101373.88
2023-04-25T06:14:51.527Z,101388.72
2023-04-25T06:17:17.995Z,101386.81
2023-04-25T06:19:44.513Z,101378.19
2023-04-25T06:22:11.201Z,101394.47
2023-04-25T06:24:37.661Z,101351.50
2023-04-25T06:27:04.092Z,101363.38
2023-04-25T06:29:30.544Z,101384.03
2023-04-25T06:31:58.077Z,101374.78
2023-04-25T06:34:25.093Z,101390.44
2023-04-25T06:36:53.527Z,101385.47
2023-04-25T06:39:21.107Z,101405.00
2023-04-25T06:41:47.499Z,101361.66
2023-04-25T06:44:13.936Z,101397.00
2023-04-25T06:46:40.477Z,101400.91
2023-04-25T06:49:07.076Z,101374.09
2023-04-25T06:51:33.555Z,101423.06
2023-04-25T06:54:00.077Z,101408.97
2023-04-25T06:56:26.530Z,101423.59
2023-04-25T06:58:53.101Z,101406.78
2023-04-25T07:01:19.832Z,101416.53
2023-04-25T07:03:46.553Z,101417.97
2023-04-25T07:06:13.103Z,101417.28
2023-04-25T07:08:39.700Z,101433.63
2023-04-25T07:11:06.488Z,101427.66
2023-04-25T07:13:32.928Z,101432.03
2023-04-25T07:16:00.803Z,101435.47
2023-04-25T07:18:27.292Z,101420.00
2023-04-25T07:20:53.717Z,101424.50
2023-04-25T07:23:20.154Z,101452.31
2023-04-25T07:25:46.656Z,101433.13
2023-04-25T07:28:13.269Z,101436.25
2023-04-25T07:30:39.686Z,101454.91
2023-04-25T07:33:06.449Z,101438.38
2023-04-25T07:35:32.889Z,101465.88
2023-04-25T07:37:59.984Z,101444.34
2023-04-25T07:40:26.548Z,101466.94
2023-04-25T07:42:53.149Z,101432.31
2023-04-25T07:45:19.648Z,101417.44
2023-04-25T07:47:46.165Z,101467.88
2023-04-25T07:50:12.781Z,101453.00
2023-04-25T07:52:39.187Z,101467.69
2023-04-25T07:55:06.089Z,101456.69
2023-04-25T07:57:32.490Z,101475.78
2023-04-25T07:59:59.007Z,101442.31
2023-04-25T08:02:29.280Z,101482.91
2023-04-25T08:04:56.296Z,101480.94
2023-04-25T08:07:22.901Z,101499.53
2023-04-25T08:09:49.609Z,101505.81
2023-04-25T08:12:16.097Z,101498.06
2023-04-25T08:14:42.535Z,101508.75
2023-04-25T08:17:08.976Z,101516.13
2023-04-25T08:19:35.563Z,101527.13
2023-04-25T08:22:02.232Z,101506.53
2023-04-25T08:24:28.685Z,101500.56
2023-04-25T08:26:56.728Z,101507.78
2023-04-25T08:29:24.944Z,101514.13
2023-04-25T08:31:51.720Z,101509.03
2023-04-25T08:34:18.174Z,101496.31
2023-04-25T08:36:44.668Z,101517.66
2023-04-25T08:39:11.344Z,101512.13
2023-04-25T08:41:38.526Z,101522.75
2023-04-25T08:44:06.499Z,101528.81
2023-04-25T08:46:33.603Z,101536.53
2023-04-25T08:49:02.599Z,101546.00
2023-04-25T08:51:32.786Z,101546.63
2023-04-25T08:54:28.079Z,101547.00
2023-04-25T08:57:02.765Z,101550.19
2023-04-25T08:59:29.491Z,101548.06
2023-04-25T09:01:56.314Z,101563.19
2023-04-25T09:04:22.821Z,101556.03
2023-04-25T09:06:49.304Z,101539.75
2023-04-25T09:09:15.892Z,101529.63
2023-04-25T09:11:42.539Z,101519.78
2023-04-25T09:14:13.105Z,101590.88
2023-04-25T09:16:58.115Z,101595.84
2023-04-25T09:19:38.960Z,101586.75
2023-04-25T09:22:08.049Z,101590.59
2023-04-25T09:24:36.372Z,101606.78
2023-04-25T09:27:11.780Z,101549.28
2023-04-25T09:29:40.274Z,101608.16
2023-04-25T09:32:24.542Z,101573.81
2023-04-25T09:34:54.192Z,101612.47
2023-04-25T09:37:25.877Z,101624.84
2023-04-25T09:40:00.254Z,101613.44
2023-04-25T09:42:29.750Z,101595.19
2023-04-25T09:44:57.267Z,101607.25
2023-04-25T09:47:25.751Z,101590.41
2023-04-25T09:49:54.029Z,101612.34
2023-04-25T09:52:25.194Z,101613.09
2023-04-25T09:54:53.058Z,101616.44
2023-04-25T09:57:20.515Z,101635.44
2023-04-25T09:59:48.370Z,101635.44
2023-04-25T10:02:18.339Z,101617.72
2023-04-25T10:04:49.711Z,101634.84
2023-04-25T10:07:18.347Z,101626.53
2023-04-25T10:09:48.216Z,101611.00
2023-04-25T10:12:15.747Z,101623.09
2023-04-25T10:14:43.303Z,101638.31
2023-04-25T10:17:12.512Z,101622.63
2023-04-25T10:19:38.921Z,101614.00
2023-04-25T10:22:21.025Z,101605.91
2023-04-25T10:24:48.018Z,101625.53
2023-04-25T10:27:15.297Z,101642.91
2023-04-25T10:29:44.271Z,101641.22
2023-04-25T10:32:10.804Z,101633.66
2023-04-25T10:34:47.974Z,101630.81
2023-04-25T10:37:14.557Z,101631.53
2023-04-25T10:39:44.787Z,101649.00
2023-04-25T10:42:12.425Z,101668.66
2023-04-25T10:44:40.695Z,101669.63
2023-04-25T10:47:08.677Z,101687.50
2023-04-25T10:49:37.544Z,101665.41
2023-04-25T10:52:25.716Z,101689.59
2023-04-25T10:54:54.525Z,101670.84
2023-04-25T10:57:27.763Z,101678.94
2023-04-25T10:59:54.363Z,101679.47
2023-04-25T11:02:20.994Z,101678.75
2023-04-25T11:04:48.709Z,101689.69
2023-04-25T11:07:34.452Z,101674.34
2023-04-25T11:10:04.802Z,101685.06
2023-04-25T11:12:33.957Z,101658.56
2023-04-25T11:15:08.354Z,101668.06
2023-04-25T11:17:35.388Z,101665.69
2023-04-25T11:20:02.016Z,101670.00
2023-04-25T11:22:28.876Z,101671.50
2023-04-25T11:24:55.371Z,101655.63
2023-04-25T11:27:22.388Z,101648.22
2023-04-25T11:29:49.103Z,101658.09
2023-04-25T11:32:18.022Z,101659.31
2023-04-25T11:34:48.608Z,101683.25
2023-04-25T11:37:15.255Z,101648.94
2023-04-25T11:39:47.062Z,101705.69
2023-04-25T11:42:14.222Z,101693.47
2023-04-25T11:44:41.758Z,101707.00
2023-04-25T11:47:08.236Z,101717.16
2023-04-25T11:49:36.088Z,101709.69
2023-04-25T11:52:02.540Z,101708.03
2023-04-25T11:54:28.929Z,101706.78
2023-04-25T11:56:55.441Z,101698.97
2023-04-25T11:59:26.216Z,101705.06
2023-04-25T12:01:53.303Z,101706.19
2023-04-25T12:04:21.418Z,101708.28
2023-04-25T12:06:50.652Z,101676.34
2023-04-25T12:09:25.365Z,101710.91
2023-04-25T12:11:59.807Z,101667.19
2023-04-25T12:14:28.682Z,101705.56
2023-04-25T12:17:00.502Z,101706.28
2023-04-25T12:19:27.733Z,101706.94
2023-04-25T12:21:58.742Z,101706.03
2023-04-25T12:24:28.391Z,101693.94
2023-04-25T12:27:00.237Z,101687.03
2023-04-25T12:29:34.573Z,101709.66
2023-04-25T12:32:05.455Z,101686.72
2023-04-25T12:34:33.277Z,101699.72
2023-04-25T12:36:59.707Z,101686.91
2023-04-25T12:39:26.799Z,101683.91
2023-04-25T12:41:54.906Z,101685.63
2023-04-25T12:44:22.419Z,101698.22
2023-04-25T12:46:49.570Z,101700.22
2023-04-25T12:49:19.421Z,101701.34
2023-04-25T12:51:46.169Z,101706.78
2023-04-25T12:54:12.695Z,101724.16
2023-04-25T12:56:39.527Z,101715.00
2023-04-25T12:59:05.998Z,101686.09
2023-04-25T13:01:34.694Z,101700.75
2023-04-25T13:04:02.935Z,101717.56
2023-04-25T13:06:31.045Z,101701.84
2023-04-25T13:08:57.583Z,101703.31
2023-04-25T13:11:24.028Z,101665.09
2023-04-25T13:13:50.608Z,101703.03
2023-04-25T13:16:17.554Z,101677.44
2023-04-25T13:18:44.062Z,101688.56
2023-04-25T13:21:12.420Z,101704.69
2023-04-25T13:23:38.982Z,101707.63
2023-04-25T13:26:05.490Z,101706.34
2023-04-25T13:28:31.876Z,101712.66
2023-04-25T13:30:58.977Z,101696.50
2023-04-25T13:33:25.404Z,101692.25
2023-04-25T13:35:54.619Z,101698.31
2023-04-25T13:38:22.435Z,101661.13
2023-04-25T13:40:49.894Z,101709.47
2023-04-25T13:43:16.349Z,101700.59
2023-04-25T13:45:42.971Z,101698.75
2023-04-25T13:48:09.426Z,101711.81
2023-04-25T13:50:36.296Z,101695.22
2023-04-25T13:53:02.713Z,101719.13
2023-04-25T13:55:29.302Z,101718.28
2023-04-25T13:57:55.784Z,101744.00
2023-04-25T14:00:22.395Z,101711.69
2023-04-25T14:02:50.792Z,101733.34
2023-04-25T14:05:17.509Z,101728.88
2023-04-25T14:07:43.978Z,101706.66
2023-04-25T14:10:10.694Z,101722.09
2023-04-25T14:12:37.131Z,101723.13
2023-04-25T14:15:04.338Z,101724.59
2023-04-25T14:17:30.974Z,101735.47
2023-04-25T14:19:57.457Z,101735.50
2023-04-25T14:22:23.905Z,101744.25
2023-04-25T14:24:50.322Z,101726.47
2023-04-25T14:27:16.783Z,101731.22
2023-04-25T14:29:43.851Z,101702.78
2023-04-25T14:32:10.373Z,101718.91
2023-04-25T14:34:36.833Z,101732.06
2023-04-25T14:37:03.371Z,101747.06
2023-04-25T14:39:29.784Z,101736.47
2023-04-25T14:41:57.070Z,101740.75
2023-04-25T14:44:23.496Z,101749.66
2023-04-25T14:46:52.548Z,101754.75
2023-04-25T14:49:19.159Z,101746.69
2023-04-25T14:51:45.664Z,101743.72
2023-04-25T14:54:13.031Z,101741.41
2023-04-25T14:56:39.448Z,101774.56
2023-04-25T14:59:05.854Z,101758.72
2023-04-25T15:01:32.733Z,101792.84
2023-04-25T15:03:59.990Z,101784.56
2023-04-25T15:06:28.090Z,101773.34
2023-04-25T15:08:54.536Z,101769.00
2023-04-25T15:11:21.517Z,101775.97
2023-04-25T15:13:48.069Z,101771.75
2023-04-25T15:16:14.509Z,101775.47
2023-04-25T15:18:41.672Z,101786.78
2023-04-25T15:21:08.390Z,101794.47
2023-04-25T15:23:34.812Z,101792.56
2023-04-25T15:26:01.303Z,101789.22
2023-04-25T15:28:27.732Z,101776.25
2023-04-25T15:30:54.536Z,101766.91
2023-04-25T15:33:21.105Z,101775.09
2023-04-25T15:35:47.570Z,101771.88
2023-04-25T15:38:13.968Z,101784.16
2023-04-25T15:40:41.481Z,101790.22
2023-04-25T15:43:08.318Z,101807.34
2023-04-25T15:45:35.916Z,101808.59
2023-04-25T15:48:02.455Z,101777.47
2023-04-25T15:50:28.957Z,101793.31
2023-04-25T15:52:55.432Z,101788.63
2023-04-25T15:55:22.442Z,101808.50
2023-04-25T15:57:50.518Z,101810.22
2023-04-25T16:00:17.767Z,101801.09
2023-04-25T16:02:46.489Z,101812.94
2023-04-25T16:05:14.560Z,101810.06
2023-04-25T16:07:43.132Z,101817.00
2023-04-25T16:10:11.489Z,101811.50
2023-04-25T16:12:39.434Z,101759.94
2023-04-25T16:15:06.409Z,101810.72
2023-04-25T16:17:33.392Z,101815.84
2023-04-25T16:20:01.878Z,101813.53
2023-04-25T16:22:28.440Z,101826.13
2023-04-25T16:24:54.942Z,101815.38
2023-04-25T16:27:22.011Z,101822.56
2023-04-25T16:29:50.352Z,101821.25
2023-04-25T16:32:16.933Z,101821.34
2023-04-25T16:34:43.941Z,101808.78
2023-04-25T16:37:11.025Z,101826.19
2023-04-25T16:39:37.520Z,101822.84
2023-04-25T16:42:04.966Z,101815.66
2023-04-25T16:44:31.652Z,101827.75
2023-04-25T16:46:58.111Z,101810.63
2023-04-25T16:49:24.687Z,101797.06
2023-04-25T16:51:51.827Z,101803.34
2023-04-25T16:54:18.273Z,101815.78
2023-04-25T16:56:44.694Z,101818.00
2023-04-25T16:59:11.450Z,101810.16
2023-04-25T17:01:37.946Z,101818.56
2023-04-25T17:04:04.559Z,101822.34
2023-04-25T17:06:31.101Z,101820.66
2023-04-25T17:08:57.505Z,101797.53
2023-04-25T17:11:23.968Z,101835.38
2023-04-25T17:13:51.099Z,101845.53
2023-04-25T17:16:22.919Z,101807.28
2023-04-25T17:18:51.455Z,101840.19
2023-04-25T17:21:18.360Z,101848.81
2023-04-25T17:23:45.762Z,101845.28
2023-04-25T17:26:13.285Z,101852.34
2023-04-25T17:28:41.826Z,101836.78
2023-04-25T17:31:08.716Z,101859.44
2023-04-25T17:33:35.129Z,101853.88
2023-04-25T17:36:01.617Z,101846.31
2023-04-25T17:38:28.431Z,101864.91
2023-04-25T17:40:55.078Z,101870.09
2023-04-25T17:43:21.541Z,101856.75
2023-04-25T17:45:48.029Z,101851.91
2023-04-25T17:48:14.543Z,101856.53
2023-04-25T17:50:41.169Z,101858.41
2023-04-25T17:53:07.896Z,101857.69
2023-04-25T17:55:34.524Z,101881.03
2023-04-25T17:58:00.997Z,101876.63
2023-04-25T18:00:27.826Z,101874.66
2023-04-25T18:02:54.286Z,101869.50
2023-04-25T18:05:20.885Z,101892.09
2023-04-25T18:07:47.351Z,101863.78
2023-04-25T18:10:14.737Z,101882.19
2023-04-25T18:12:41.580Z,101868.97
2023-04-25T18:15:09.260Z,101873.81
2023-04-25T18:17:42.536Z,101893.56
2023-04-25T18:20:15.771Z,101896.94
2023-04-25T18:22:44.502Z,101895.75
2023-04-25T18:25:11.605Z,101897.00
2023-04-25T18:27:39.110Z,101884.91
2023-04-25T18:30:08.847Z,101890.69
2023-04-25T18:32:35.425Z,101901.00
2023-04-25T18:35:02.067Z,101912.19
2023-04-25T18:37:28.763Z,101894.50
2023-04-25T18:39:55.296Z,101911.84
2023-04-25T18:42:22.282Z,101912.50
2023-04-25T18:44:48.693Z,101903.34
2023-04-25T18:47:15.424Z,101923.31
2023-04-25T18:49:42.064Z,101899.50
2023-04-25T18:52:10.618Z,101917.06
2023-04-25T18:54:37.366Z,101906.53
2023-04-25T18:57:06.027Z,101915.31
2023-04-25T18:59:33.448Z,101926.38
2023-04-25T19:02:04.363Z,101879.75
2023-04-25T19:04:31.031Z,101908.03
2023-04-25T19:06:57.819Z,101910.75
2023-04-25T19:09:24.917Z,101929.19
2023-04-25T19:11:51.518Z,101916.84
2023-04-25T19:14:17.989Z,101914.50
2023-04-25T19:16:44.554Z,101925.75
2023-04-25T19:19:11.476Z,101937.09
2023-04-25T19:21:38.022Z,101939.56
2023-04-25T19:24:05.448Z,101922.69
2023-04-25T19:26:32.568Z,101944.25
2023-04-25T19:29:11.360Z,101951.16
2023-04-25T19:31:39.466Z,101948.00
2023-04-25T19:34:07.580Z,101953.34
2023-04-25T19:36:34.666Z,101944.34
2023-04-25T19:39:03.740Z,101931.81
2023-04-25T19:41:32.030Z,101960.31
2023-04-25T19:44:00.904Z,101949.72
2023-04-25T19:46:27.442Z,101958.44
2023-04-25T19:48:53.866Z,101959.81
2023-04-25T19:51:21.017Z,101913.44
2023-04-25T19:53:47.453Z,101954.09
2023-04-25T19:56:14.047Z,101961.13
2023-04-25T19:58:40.564Z,101945.84
2023-04-25T20:01:07.690Z,101934.41
2023-04-25T20:03:34.392Z,101929.72
2023-04-25T20:06:00.919Z,101953.31
2023-04-25T20:08:27.352Z,101946.75
2023-04-25T20:10:53.871Z,101956.72
2023-04-25T20:13:20.251Z,101954.56
2023-04-25T20:15:46.890Z,101921.09
2023-04-25T20:18:13.761Z,101939.34
2023-04-25T20:20:40.483Z,101928.78
2023-04-25T20:23:06.957Z,101958.84
2023-04-25T20:25:33.394Z,101945.44
2023-04-25T20:28:00.031Z,101970.94
2023-04-25T20:30:26.709Z,101953.22
2023-04-25T20:32:53.186Z,101952.47
2023-04-25T20:35:19.679Z,101947.13
2023-04-25T20:37:46.525Z,101917.78
2023-04-25T20:40:13.396Z,101955.94
2023-04-25T20:42:39.827Z,101953.50
2023-04-25T20:45:13.651Z,101947.69
2023-04-25T20:47:41.026Z,101957.81
2023-04-25T20:50:08.396Z,101970.63
2023-04-25T20:52:35.328Z,101958.94
2023-04-25T20:55:02.063Z,101955.75
2023-04-25T20:57:29.287Z,101961.56
2023-04-25T20:59:55.700Z,101945.03
2023-04-25T21:02:22.614Z,101945.88
2023-04-25T21:04:49.080Z,101962.19
2023-04-25T21:07:15.616Z,101951.75
2023-04-25T21:09:45.661Z,101945.38
2023-04-25T21:12:12.412Z,101939.53
2023-04-25T21:14:38.949Z,101940.19
2023-04-25T21:17:05.740Z,101941.03
2023-04-25T21:19:32.326Z,101934.31
2023-04-25T21:21:59.244Z,101960.13
2023-04-25T21:24:27.141Z,101949.44
2023-04-25T21:26:53.625Z,101934.72
2023-04-25T21:29:20.092Z,101960.66
2023-04-25T21:31:46.723Z,101949.56
2023-04-25T21:34:13.266Z,101955.94
2023-04-25T21:36:41.187Z,101944.94
2023-04-25T21:39:07.710Z,101951.47
2023-04-25T21:41:34.203Z,101973.09
2023-04-25T21:44:00.624Z,101952.56
2023-04-25T21:46:27.093Z,101950.84
2023-04-25T21:48:54.000Z,101943.22
2023-04-25T21:51:20.897Z,101937.09
2023-04-25T21:53:47.405Z,101951.91
2023-04-25T21:56:13.816Z,101959.81
2023-04-25T21:58:40.266Z,101958.31
2023-04-25T22:01:06.890Z,101955.38
2023-04-25T22:03:34.118Z,101973.63
2023-04-25T22:06:01.196Z,101979.28
2023-04-25T22:08:27.665Z,101960.84
2023-04-25T22:10:55.202Z,101971.09
2023-04-25T22:13:22.699Z,101986.50
2023-04-25T22:15:49.428Z,101977.78
2023-04-25T22:18:16.368Z,101984.72
2023-04-25T22:20:44.252Z,101991.72
2023-04-25T22:23:12.045Z,101993.50
2023-04-25T22:25:38.669Z,102000.59
2023-04-25T22:28:05.262Z,101988.78
2023-04-25T22:30:32.619Z,101967.84
2023-04-25T22:32:59.079Z,101988.28
2023-04-25T22:35:25.644Z,102005.34
2023-04-25T22:37:52.452Z,101995.13
2023-04-25T22:40:19.063Z,101994.53
2023-04-25T22:42:45.587Z,102009.81
2023-04-25T22:45:12.242Z,101985.91
2023-04-25T22:47:39.792Z,102012.28
2023-04-25T22:50:12.204Z,102010.72
2023-04-25T22:52:38.997Z,102021.22
2023-04-25T22:55:06.514Z,102032.44
2023-04-25T22:57:33.073Z,102012.00
2023-04-25T22:59:59.491Z,102023.56
2023-04-25T23:02:26.150Z,102016.16
2023-04-25T23:04:55.632Z,102027.63
2023-04-25T23:07:22.152Z,102024.91
2023-04-25T23:09:49.254Z,102008.66
2023-04-25T23:12:21.477Z,102008.19
2023-04-25T23:14:52.711Z,101975.03
2023-04-25T23:17:20.344Z,101978.91
2023-04-25T23:19:46.777Z,102017.50
2023-04-25T23:22:13.239Z,102015.63
2023-04-25T23:24:40.472Z,101974.00
2023-04-25T23:27:07.106Z,101993.19
2023-04-25T23:29:34.608Z,101962.44
2023-04-25T23:32:04.336Z,101992.81
2023-04-25T23:34:31.599Z,101963.44
2023-04-25T23:37:01.167Z,102003.13
2023-04-25T23:39:28.107Z,102002.28
2023-04-25T23:41:54.521Z,101985.66
2023-04-25T23:44:20.993Z,101983.88
2023-04-25T23:46:47.489Z,101992.75
2023-04-25T23:49:13.935Z,102009.06
2023-04-25T23:51:40.340Z,102009.22
2023-04-25T23:54:06.745Z,102008.63
2023-04-25T23:56:33.122Z,101985.91
2023-04-25T23:58:59.540Z,101996.38
